Time;durP1;ratioP1;P1;durP2;ratioP2;P2;SDS_P1;SDS_P2;PMS_P1;PMS_P2;Temp;Humidity;BMP_temperature;BMP_pressure;BME280_temperature;BME280_humidity;BME280_pressure;Samples;Min_cycle;Max_cycle;Signal;HPM_P1;HPM_P2
2021/09/25 00:02:18;;;;;;;13.60;9.97;;;;;;;;;;5099231;28;20459;-72
2021/09/25 00:04:50;;;;;;;15.83;10.20;;;;;;;;;;5099547;28;20543;-72
2021/09/25 00:07:18;;;;;;;13.40;9.97;;;;;;;;;;5099338;28;20872;-71
2021/09/25 00:09:49;;;;;;;17.37;8.90;;;;;;;;;;5099915;28;20447;-72
2021/09/25 00:12:21;;;;;;;13.17;9.53;;;;;;;;;;5099469;28;20992;-71
2021/09/25 00:14:52;;;;;;;12.63;8.90;;;;;;;;;;5100149;28;20444;-72
2021/09/25 00:17:23;;;;;;;13.47;8.57;;;;;;;;;;5098846;28;20581;-71
2021/09/25 00:19:52;;;;;;;12.10;8.73;;;;;;;;;;5099954;28;20463;-71
2021/09/25 00:22:20;;;;;;;10.73;7.83;;;;;;;;;;5099028;28;20469;-72
2021/09/25 00:24:48;;;;;;;13.40;9.97;;;;;;;;;;5098618;28;20716;-72
2021/09/25 00:27:16;;;;;;;12.13;7.60;;;;;;;;;;5100079;28;20788;-72
2021/09/25 00:29:52;;;;;;;14.20;8.50;;;;;;;;;;5098879;28;20452;-72
2021/09/25 00:32:20;;;;;;;13.30;9.17;;;;;;;;;;5098745;28;20470;-72
2021/09/25 00:34:51;;;;;;;13.93;8.60;;;;;;;;;;5098782;28;20941;-71
2021/09/25 00:37:20;;;;;;;13.60;8.43;;;;;;;;;;5098956;28;20548;-71
2021/09/25 00:39:52;;;;;;;9.70;8.07;;;;;;;;;;5098301;28;20448;-71
2021/09/25 00:42:22;;;;;;;15.40;8.60;;;;;;;;;;5102362;28;20456;-72
2021/09/25 00:44:56;;;;;;;12.03;8.47;;;;;;;;;;5098722;28;20444;-72
2021/09/25 00:47:24;;;;;;;10.43;7.33;;;;;;;;;;5098953;28;20728;-72
2021/09/25 00:49:53;;;;;;;13.57;8.47;;;;;;;;;;5098374;28;20864;-71
2021/09/25 00:52:29;;;;;;;13.90;8.97;;;;;;;;;;5098496;28;20542;-72
2021/09/25 00:54:57;;;;;;;9.60;7.90;;;;;;;;;;5098029;28;20788;-72
2021/09/25 00:57:25;;;;;;;11.83;8.30;;;;;;;;;;5098309;28;20491;-71
2021/09/25 00:59:57;;;;;;;14.53;8.30;;;;;;;;;;5098675;28;20514;-72
2021/09/25 01:02:26;;;;;;;12.17;8.80;;;;;;;;;;5097653;28;20558;-71
2021/09/25 01:04:55;;;;;;;16.10;8.40;;;;;;;;;;5097977;28;20539;-72
2021/09/25 01:07:24;;;;;;;13.60;10.37;;;;;;;;;;5098142;28;20475;-71
2021/09/25 01:09:52;;;;;;;14.47;10.27;;;;;;;;;;5098208;28;20444;-72
2021/09/25 01:12:22;;;;;;;18.23;9.73;;;;;;;;;;5098385;28;20470;-73
2021/09/25 01:14:50;;;;;;;13.57;8.77;;;;;;;;;;5097438;28;20535;-72
2021/09/25 01:17:20;;;;;;;13.63;8.80;;;;;;;;;;5097000;28;20544;-72
2021/09/25 01:19:52;;;;;;;16.17;10.60;;;;;;;;;;5098065;28;20520;-72
2021/09/25 01:22:23;;;;;;;13.90;9.30;;;;;;;;;;5097149;28;20463;-71
2021/09/25 01:24:53;;;;;;;15.63;10.00;;;;;;;;;;5097317;28;20479;-71
2021/09/25 01:27:21;;;;;;;16.37;10.80;;;;;;;;;;5097804;28;20448;-71
2021/09/25 01:29:49;;;;;;;12.23;9.30;;;;;;;;;;5097904;28;20830;-71
2021/09/25 01:32:20;;;;;;;12.90;9.90;;;;;;;;;;5098374;28;20458;-72
2021/09/25 01:34:50;;;;;;;14.20;9.23;;;;;;;;;;5098422;28;20463;-71
2021/09/25 01:37:18;;;;;;;16.10;11.07;;;;;;;;;;5097538;28;20480;-71
2021/09/25 01:39:47;;;;;;;14.80;10.10;;;;;;;;;;5098269;28;20543;-72
2021/09/25 01:42:15;;;;;;;15.30;10.20;;;;;;;;;;5097595;28;20448;-73
2021/09/25 01:44:43;;;;;;;18.87;11.10;;;;;;;;;;5097138;28;20550;-72
2021/09/25 01:47:11;;;;;;;21.43;11.70;;;;;;;;;;5097969;28;20455;-72
2021/09/25 01:49:42;;;;;;;18.00;10.30;;;;;;;;;;5097148;28;20926;-71
2021/09/25 01:52:13;;;;;;;16.07;11.40;;;;;;;;;;5096089;28;20451;-71
2021/09/25 01:54:41;;;;;;;17.60;9.43;;;;;;;;;;5096765;28;20494;-71
2021/09/25 01:57:13;;;;;;;12.30;9.37;;;;;;;;;;5097042;28;20570;-71
2021/09/25 01:59:41;;;;;;;13.67;10.33;;;;;;;;;;5097399;28;20572;-71
2021/09/25 02:02:09;;;;;;;16.70;9.63;;;;;;;;;;5096677;28;20550;-72
2021/09/25 02:04:39;;;;;;;17.40;9.73;;;;;;;;;;5097918;28;20455;-70
2021/09/25 02:07:07;;;;;;;23.73;10.17;;;;;;;;;;5098341;28;20845;-73
2021/09/25 02:09:35;;;;;;;14.97;10.67;;;;;;;;;;5096995;28;20562;-71
2021/09/25 02:12:04;;;;;;;14.47;10.63;;;;;;;;;;5097329;28;20494;-71
2021/09/25 02:14:34;;;;;;;14.17;9.67;;;;;;;;;;5097427;28;20477;-71
2021/09/25 02:17:02;;;;;;;18.60;10.90;;;;;;;;;;5097024;28;20518;-71
2021/09/25 02:19:29;;;;;;;11.67;8.20;;;;;;;;;;5096406;28;20557;-71
2021/09/25 02:21:57;;;;;;;13.60;9.90;;;;;;;;;;5096489;28;20509;-72
2021/09/25 02:24:25;;;;;;;12.20;8.07;;;;;;;;;;5097250;28;20551;-72
2021/09/25 02:26:56;;;;;;;17.33;10.50;;;;;;;;;;5096511;28;20462;-72
2021/09/25 02:29:25;;;;;;;13.90;10.73;;;;;;;;;;5096064;28;20488;-72
2021/09/25 02:31:54;;;;;;;13.67;9.87;;;;;;;;;;5096913;28;20810;-72
2021/09/25 02:34:22;;;;;;;10.90;8.43;;;;;;;;;;5095869;28;20462;-72
2021/09/25 02:36:50;;;;;;;18.13;9.90;;;;;;;;;;5097014;28;20795;-72
2021/09/25 02:39:18;;;;;;;18.43;11.00;;;;;;;;;;5096698;28;20768;-72
2021/09/25 02:41:46;;;;;;;14.47;10.13;;;;;;;;;;5096410;28;20459;-71
2021/09/25 02:44:14;;;;;;;17.77;9.50;;;;;;;;;;5095799;28;20875;-72
2021/09/25 02:46:42;;;;;;;13.73;10.30;;;;;;;;;;5096456;28;20558;-72
2021/09/25 02:49:11;;;;;;;16.20;10.87;;;;;;;;;;5095093;28;20532;-71
2021/09/25 02:51:39;;;;;;;15.67;11.13;;;;;;;;;;5095798;28;20451;-71
2021/09/25 02:54:07;;;;;;;16.83;11.10;;;;;;;;;;5096146;28;20721;-72
2021/09/25 02:56:35;;;;;;;17.03;10.90;;;;;;;;;;5096292;28;20548;-72
2021/09/25 02:59:03;;;;;;;19.33;12.37;;;;;;;;;;5096094;28;20519;-71
2021/09/25 03:01:31;;;;;;;17.27;12.17;;;;;;;;;;5096797;28;20933;-72
2021/09/25 03:03:59;;;;;;;19.10;11.83;;;;;;;;;;5096750;28;20459;-72
2021/09/25 03:06:29;;;;;;;20.30;13.10;;;;;;;;;;5096491;28;20448;-71
2021/09/25 03:08:57;;;;;;;13.57;9.97;;;;;;;;;;5096697;28;20547;-71
2021/09/25 03:11:25;;;;;;;22.63;13.43;;;;;;;;;;5102177;28;20435;-71
2021/09/25 03:13:53;;;;;;;15.20;11.40;;;;;;;;;;5114422;28;20510;-71
2021/09/25 03:16:20;;;;;;;16.20;10.43;;;;;;;;;;5096200;28;20505;-70
2021/09/25 03:18:48;;;;;;;20.07;11.43;;;;;;;;;;5095663;28;20971;-72
2021/09/25 03:21:16;;;;;;;15.10;11.33;;;;;;;;;;5097629;28;20457;-71
2021/09/25 03:23:46;;;;;;;22.60;13.10;;;;;;;;;;5095593;28;20463;-71
2021/09/25 03:26:15;;;;;;;17.33;13.30;;;;;;;;;;5100044;28;20489;-71
2021/09/25 03:28:44;;;;;;;15.00;11.70;;;;;;;;;;5092259;28;20443;-71
2021/09/25 03:31:11;;;;;;;15.40;11.67;;;;;;;;;;5099779;28;20530;-71
2021/09/25 03:33:39;;;;;;;21.23;12.90;;;;;;;;;;5099932;28;20514;-71
2021/09/25 03:36:07;;;;;;;15.97;11.40;;;;;;;;;;5099660;28;20458;-71
2021/09/25 03:38:35;;;;;;;15.53;10.87;;;;;;;;;;5099536;28;20810;-71
2021/09/25 03:41:05;;;;;;;15.57;11.17;;;;;;;;;;5099531;28;20551;-71
2021/09/25 03:43:33;;;;;;;19.63;11.80;;;;;;;;;;5099280;28;20467;-71
2021/09/25 03:46:01;;;;;;;15.60;11.37;;;;;;;;;;5100070;28;20550;-71
2021/09/25 03:48:29;;;;;;;18.67;10.97;;;;;;;;;;5100237;28;20790;-71
2021/09/25 03:51:00;;;;;;;17.47;12.00;;;;;;;;;;5099989;28;20452;-72
2021/09/25 03:53:28;;;;;;;14.67;10.20;;;;;;;;;;5099755;28;20506;-70
2021/09/25 03:55:56;;;;;;;18.50;11.27;;;;;;;;;;5099818;28;20724;-72
2021/09/25 03:58:27;;;;;;;16.53;11.70;;;;;;;;;;5099722;28;20491;-72
2021/09/25 04:00:55;;;;;;;19.33;12.87;;;;;;;;;;5099789;28;20491;-71
2021/09/25 04:03:23;;;;;;;20.83;10.07;;;;;;;;;;5099892;28;20455;-72
2021/09/25 04:05:50;;;;;;;14.00;10.10;;;;;;;;;;5099613;28;20478;-71
2021/09/25 04:08:19;;;;;;;13.40;9.87;;;;;;;;;;5099929;28;20456;-71
2021/09/25 04:10:47;;;;;;;16.03;10.20;;;;;;;;;;5099792;28;20914;-71
2021/09/25 04:13:17;;;;;;;15.03;10.40;;;;;;;;;;5099062;28;20474;-72
2021/09/25 04:15:50;;;;;;;14.60;10.40;;;;;;;;;;5099188;28;20448;-72
2021/09/25 04:18:17;;;;;;;18.20;11.30;;;;;;;;;;5099392;28;20933;-71
2021/09/25 04:20:45;;;;;;;14.30;11.53;;;;;;;;;;5098832;28;20795;-72
2021/09/25 04:23:13;;;;;;;16.00;10.17;;;;;;;;;;5099459;28;20463;-72
2021/09/25 04:25:41;;;;;;;22.70;13.03;;;;;;;;;;5099279;28;20882;-72
2021/09/25 04:28:10;;;;;;;20.10;12.20;;;;;;;;;;5099420;28;20454;-72
2021/09/25 04:30:50;;;;;;;20.00;12.37;;;;;;;;;;5099421;28;20462;-71
2021/09/25 04:33:19;;;;;;;18.07;11.30;;;;;;;;;;5099174;28;20451;-72
2021/09/25 04:35:47;;;;;;;19.83;12.30;;;;;;;;;;5098829;28;20474;-71
2021/09/25 04:38:15;;;;;;;14.47;10.27;;;;;;;;;;5099420;28;20487;-72
2021/09/25 04:40:43;;;;;;;17.43;12.20;;;;;;;;;;5099334;28;20459;-72
2021/09/25 04:43:11;;;;;;;13.53;10.03;;;;;;;;;;5098818;28;20463;-72
2021/09/25 04:45:39;;;;;;;18.13;10.60;;;;;;;;;;5098602;28;20544;-72
2021/09/25 04:48:07;;;;;;;14.93;9.97;;;;;;;;;;5098367;28;20520;-72
2021/09/25 04:50:37;;;;;;;16.83;10.57;;;;;;;;;;5098566;28;20464;-73
2021/09/25 04:53:06;;;;;;;11.73;9.20;;;;;;;;;;5098621;28;20467;-72
2021/09/25 04:55:34;;;;;;;12.53;10.07;;;;;;;;;;5098494;28;20534;-71
2021/09/25 04:58:05;;;;;;;18.53;11.57;;;;;;;;;;5097829;28;20476;-71
2021/09/25 05:00:33;;;;;;;13.53;9.63;;;;;;;;;;5098412;28;20452;-71
2021/09/25 05:03:01;;;;;;;14.90;10.80;;;;;;;;;;5098315;28;20467;-72
2021/09/25 05:05:29;;;;;;;17.10;10.80;;;;;;;;;;5098554;28;20452;-71
2021/09/25 05:07:58;;;;;;;13.83;10.20;;;;;;;;;;5098626;28;20727;-71
2021/09/25 05:10:26;;;;;;;17.03;10.77;;;;;;;;;;5098875;28;20451;-72
2021/09/25 05:12:54;;;;;;;13.60;9.83;;;;;;;;;;5097963;28;20462;-72
2021/09/25 05:15:22;;;;;;;13.27;9.03;;;;;;;;;;5097265;28;20459;-72
2021/09/25 05:17:51;;;;;;;18.87;9.30;;;;;;;;;;5097909;28;20475;-72
2021/09/25 05:20:20;;;;;;;14.07;10.20;;;;;;;;;;5097903;28;20458;-72
2021/09/25 05:22:47;;;;;;;19.33;11.90;;;;;;;;;;5097681;28;20474;-72
2021/09/25 05:25:17;;;;;;;15.67;9.67;;;;;;;;;;5097703;28;20478;-72
2021/09/25 05:27:48;;;;;;;11.83;9.03;;;;;;;;;;5096961;28;20455;-73
2021/09/25 05:30:16;;;;;;;20.40;9.73;;;;;;;;;;5095309;28;20467;-72
2021/09/25 05:32:44;;;;;;;17.43;9.90;;;;;;;;;;5097982;28;20460;-70
2021/09/25 05:35:12;;;;;;;14.20;9.77;;;;;;;;;;5098230;28;20459;-71
2021/09/25 05:37:43;;;;;;;15.47;10.60;;;;;;;;;;5097502;28;20443;-72
2021/09/25 05:40:12;;;;;;;16.03;10.70;;;;;;;;;;5096788;28;20459;-72
2021/09/25 05:42:42;;;;;;;15.77;11.07;;;;;;;;;;5098443;28;20810;-72
2021/09/25 05:45:11;;;;;;;16.40;10.40;;;;;;;;;;5097583;28;20459;-71
2021/09/25 05:47:39;;;;;;;18.47;10.80;;;;;;;;;;5095966;28;20568;-72
2021/09/25 05:50:08;;;;;;;17.17;10.00;;;;;;;;;;5097419;28;20498;-72
2021/09/25 05:52:35;;;;;;;16.57;11.40;;;;;;;;;;5097210;28;20461;-73
2021/09/25 05:55:04;;;;;;;15.83;10.03;;;;;;;;;;5096853;28;20470;-72
2021/09/25 05:57:31;;;;;;;15.60;11.47;;;;;;;;;;5096347;28;20931;-72
2021/09/25 06:00:06;;;;;;;20.07;12.37;;;;;;;;;;5096965;28;20586;-72
2021/09/25 06:02:35;;;;;;;21.77;13.30;;;;;;;;;;5098353;28;20450;-72
2021/09/25 06:05:03;;;;;;;17.20;12.37;;;;;;;;;;5096717;28;20496;-73
2021/09/25 06:07:31;;;;;;;19.50;11.10;;;;;;;;;;5096968;28;20436;-73
2021/09/25 06:09:59;;;;;;;22.57;13.07;;;;;;;;;;5096552;28;20843;-72
2021/09/25 06:12:27;;;;;;;19.00;11.33;;;;;;;;;;5096497;28;20479;-72
2021/09/25 06:14:55;;;;;;;28.43;12.83;;;;;;;;;;5096390;28;20483;-73
2021/09/25 06:17:25;;;;;;;16.80;11.10;;;;;;;;;;5095795;28;20846;-73
2021/09/25 06:19:52;;;;;;;19.20;10.80;;;;;;;;;;5095799;28;20483;-72
2021/09/25 06:22:20;;;;;;;19.63;10.90;;;;;;;;;;5095759;28;20463;-71
2021/09/25 06:24:49;;;;;;;15.53;10.40;;;;;;;;;;5096144;28;20542;-72
2021/09/25 06:27:16;;;;;;;18.17;10.90;;;;;;;;;;5095495;28;20452;-72
2021/09/25 06:29:44;;;;;;;20.93;11.30;;;;;;;;;;5095990;28;20452;-71
2021/09/25 06:32:15;;;;;;;18.43;11.80;;;;;;;;;;5096331;28;20883;-72
2021/09/25 06:34:46;;;;;;;20.80;10.97;;;;;;;;;;5095735;28;20553;-72
2021/09/25 06:37:14;;;;;;;17.20;10.07;;;;;;;;;;5096450;28;20481;-73
2021/09/25 06:39:42;;;;;;;16.63;11.30;;;;;;;;;;5096315;28;20519;-72
2021/09/25 06:42:10;;;;;;;19.87;11.00;;;;;;;;;;5095647;28;20481;-71
2021/09/25 06:44:38;;;;;;;13.77;9.20;;;;;;;;;;5096350;28;20463;-73
2021/09/25 06:47:06;;;;;;;14.27;10.10;;;;;;;;;;5094878;28;21033;-72
2021/09/25 06:49:33;;;;;;;15.60;10.30;;;;;;;;;;5096859;28;20452;-72
2021/09/25 06:52:04;;;;;;;15.00;10.80;;;;;;;;;;5094426;28;20452;-72
2021/09/25 06:54:37;;;;;;;15.83;11.00;;;;;;;;;;5083984;28;20567;-73
2021/09/25 06:57:07;;;;;;;14.77;9.90;;;;;;;;;;5086509;28;20451;-73
2021/09/25 06:59:35;;;;;;;15.67;10.67;;;;;;;;;;5088482;28;20592;-73
2021/09/25 07:02:05;;;;;;;23.00;12.67;;;;;;;;;;5094920;28;20444;-73
2021/09/25 07:04:43;;;;;;;17.50;12.40;;;;;;;;;;5095035;28;20451;-73
2021/09/25 07:07:15;;;;;;;18.70;11.87;;;;;;;;;;5094690;28;20734;-72
2021/09/25 07:09:43;;;;;;;20.43;11.10;;;;;;;;;;5092437;28;20892;-72
2021/09/25 07:12:12;;;;;;;18.40;11.10;;;;;;;;;;5076560;28;20456;-71
2021/09/25 07:14:40;;;;;;;16.77;10.67;;;;;;;;;;5075080;28;20452;-73
2021/09/25 07:17:08;;;;;;;20.17;12.40;;;;;;;;;;5078418;28;20456;-72
2021/09/25 07:19:36;;;;;;;18.10;11.00;;;;;;;;;;5094700;28;20565;-73
2021/09/25 07:22:09;;;;;;;18.80;14.53;;;;;;;;;;5095067;28;20750;-72
2021/09/25 07:24:52;;;;;;;26.33;17.00;;;;;;;;;;5094166;28;20558;-73
2021/09/25 07:27:20;;;;;;;24.23;13.33;;;;;;;;;;5094892;28;20451;-72
2021/09/25 07:29:48;;;;;;;20.33;11.90;;;;;;;;;;5093319;28;20451;-72
2021/09/25 07:32:20;;;;;;;25.63;12.90;;;;;;;;;;5092381;28;20728;-73
2021/09/25 07:34:48;;;;;;;22.60;13.23;;;;;;;;;;5084347;28;20491;-73
2021/09/25 07:37:23;;;;;;;19.43;13.50;;;;;;;;;;5083851;28;20463;-72
2021/09/25 07:40:07;;;;;;;22.03;12.50;;;;;;;;;;5074202;28;20953;-73
2021/09/25 07:42:35;;;;;;;24.87;13.90;;;;;;;;;;5074813;28;20456;-72
2021/09/25 07:45:10;;;;;;;21.90;12.73;;;;;;;;;;5081533;28;20741;-71
2021/09/25 07:47:39;;;;;;;16.63;13.50;;;;;;;;;;5090895;28;20792;-72
2021/09/25 07:50:17;;;;;;;21.90;13.37;;;;;;;;;;5094328;28;20496;-72
2021/09/25 07:52:45;;;;;;;23.67;14.47;;;;;;;;;;5094259;28;20459;-72
2021/09/25 07:55:34;;;;;;;17.03;12.37;;;;;;;;;;5093060;28;20451;-73
2021/09/25 07:58:14;;;;;;;22.70;14.23;;;;;;;;;;5091710;28;20452;-72
2021/09/25 08:00:42;;;;;;;27.13;14.43;;;;;;;;;;5074255;28;20898;-71
2021/09/25 08:03:13;;;;;;;21.40;15.30;;;;;;;;;;5084260;28;20466;-73
2021/09/25 08:05:42;;;;;;;19.20;13.67;;;;;;;;;;5081447;28;20746;-72
2021/09/25 08:08:10;;;;;;;19.90;13.10;;;;;;;;;;5094314;28;20553;-72
2021/09/25 08:10:39;;;;;;;35.23;12.77;;;;;;;;;;5095832;28;20451;-72
2021/09/25 08:13:09;;;;;;;19.30;13.20;;;;;;;;;;5096355;28;20462;-73
2021/09/25 08:15:54;;;;;;;23.37;13.30;;;;;;;;;;5090903;28;20444;-74
2021/09/25 08:18:22;;;;;;;20.33;13.60;;;;;;;;;;5077936;28;20514;-71
2021/09/25 08:20:51;;;;;;;21.97;12.40;;;;;;;;;;5094844;28;20455;-72
2021/09/25 08:23:22;;;;;;;22.80;11.03;;;;;;;;;;5097384;28;20454;-74
2021/09/25 08:25:53;;;;;;;21.37;13.30;;;;;;;;;;5097045;28;20528;-72
2021/09/25 08:28:21;;;;;;;20.40;13.30;;;;;;;;;;5099254;28;20459;-72
2021/09/25 08:30:49;;;;;;;16.80;12.70;;;;;;;;;;5097676;28;20477;-73
2021/09/25 08:33:17;;;;;;;18.90;12.77;;;;;;;;;;5093185;28;20468;-72
2021/09/25 08:35:47;;;;;;;18.00;12.17;;;;;;;;;;5091516;28;20471;-72
2021/09/25 08:38:15;;;;;;;23.40;12.77;;;;;;;;;;5081960;28;20925;-71
2021/09/25 08:40:45;;;;;;;22.67;13.50;;;;;;;;;;5096901;28;20509;-71
2021/09/25 08:43:15;;;;;;;21.63;12.70;;;;;;;;;;5088073;28;20544;-73
2021/09/25 08:45:47;;;;;;;20.27;13.63;;;;;;;;;;5095460;28;20447;-71
2021/09/25 08:48:19;;;;;;;23.73;14.70;;;;;;;;;;5094612;28;20543;-72
2021/09/25 08:50:49;;;;;;;24.60;15.83;;;;;;;;;;5094721;28;20491;-72
2021/09/25 08:53:27;;;;;;;24.10;12.77;;;;;;;;;;5096910;28;20475;-72
2021/09/25 08:55:57;;;;;;;21.37;14.57;;;;;;;;;;5096104;28;20764;-73
2021/09/25 08:58:29;;;;;;;19.30;13.53;;;;;;;;;;5095639;28;20456;-73
2021/09/25 09:01:02;;;;;;;20.37;14.67;;;;;;;;;;5094808;28;20574;-71
2021/09/25 09:03:32;;;;;;;19.90;13.63;;;;;;;;;;5079300;28;20456;-71
2021/09/25 09:06:13;;;;;;;22.73;13.20;;;;;;;;;;5092705;28;20455;-73
2021/09/25 09:08:42;;;;;;;23.93;15.30;;;;;;;;;;5092784;28;20921;-72
2021/09/25 09:11:11;;;;;;;34.23;15.63;;;;;;;;;;5094535;28;20583;-72
2021/09/25 09:13:46;;;;;;;25.43;15.70;;;;;;;;;;5088788;28;20480;-72
2021/09/25 09:16:17;;;;;;;24.03;14.43;;;;;;;;;;5082634;28;20455;-73
2021/09/25 09:18:46;;;;;;;24.53;14.57;;;;;;;;;;5094910;28;20507;-72
2021/09/25 09:21:15;;;;;;;22.37;15.50;;;;;;;;;;5096136;28;20474;-72
2021/09/25 09:23:45;;;;;;;26.43;14.67;;;;;;;;;;5087933;28;20451;-72
2021/09/25 09:26:23;;;;;;;20.83;13.93;;;;;;;;;;5076445;28;20516;-71
2021/09/25 09:29:02;;;;;;;20.20;12.63;;;;;;;;;;5095551;28;20459;-72
2021/09/25 09:31:38;;;;;;;22.37;13.53;;;;;;;;;;5093531;28;20918;-71
2021/09/25 09:34:07;;;;;;;20.47;13.60;;;;;;;;;;5086083;28;20474;-71
2021/09/25 09:36:37;;;;;;;20.13;12.40;;;;;;;;;;5093994;28;20913;-71
2021/09/25 09:39:07;;;;;;;20.97;14.43;;;;;;;;;;5095965;28;20455;-71
2021/09/25 09:41:38;;;;;;;33.00;15.43;;;;;;;;;;5095577;28;20565;-72
2021/09/25 09:44:14;;;;;;;18.33;12.53;;;;;;;;;;5094299;28;20838;-72
2021/09/25 09:46:50;;;;;;;17.40;12.83;;;;;;;;;;5076384;28;20482;-72
2021/09/25 09:49:23;;;;;;;18.07;13.00;;;;;;;;;;5075906;28;20452;-72
2021/09/25 09:52:07;;;;;;;20.47;12.33;;;;;;;;;;5076539;28;20810;-73
2021/09/25 09:54:53;;;;;;;20.63;14.73;;;;;;;;;;5087068;28;20471;-71
2021/09/25 09:57:45;;;;;;;21.23;13.07;;;;;;;;;;5086800;28;20550;-73
2021/09/25 10:00:27;;;;;;;;;;;;;;;;;;;;;
2021/09/25 10:02:56;;;;;;;17.33;13.03;;;;;;;;;;5096088;28;20459;-72
2021/09/25 10:05:24;;;;;;;20.10;12.03;;;;;;;;;;5096327;28;20869;-72
2021/09/25 10:08:00;;;;;;;16.57;12.40;;;;;;;;;;5079301;28;20452;-72
2021/09/25 10:10:28;;;;;;;15.60;13.50;;;;;;;;;;5074971;28;20517;-73
2021/09/25 10:12:57;;;;;;;16.00;12.90;;;;;;;;;;5077929;28;20529;-70
2021/09/25 10:15:27;;;;;;;18.63;13.33;;;;;;;;;;5093694;28;20451;-71
2021/09/25 10:17:56;;;;;;;14.77;11.53;;;;;;;;;;5088864;28;20444;-72
2021/09/25 10:20:25;;;;;;;15.73;10.60;;;;;;;;;;5092905;28;20483;-71
2021/09/25 10:22:55;;;;;;;13.10;10.73;;;;;;;;;;5094064;28;20448;-73
2021/09/25 10:25:26;;;;;;;15.43;11.43;;;;;;;;;;5093576;28;20456;-71
2021/09/25 10:27:57;;;;;;;18.67;11.10;;;;;;;;;;5093137;28;20459;-73
2021/09/25 10:30:37;;;;;;;14.70;10.63;;;;;;;;;;5090850;28;20455;-71
2021/09/25 10:33:15;;;;;;;17.93;10.50;;;;;;;;;;5093183;28;20771;-72
2021/09/25 10:35:45;;;;;;;13.17;10.10;;;;;;;;;;5093384;28;20474;-71
2021/09/25 10:38:14;;;;;;;12.93;10.00;;;;;;;;;;5091675;28;20471;-72
2021/09/25 10:40:49;;;;;;;16.17;9.93;;;;;;;;;;5094343;28;20490;-72
2021/09/25 10:43:24;;;;;;;11.13;9.80;;;;;;;;;;5093987;28;20939;-72
2021/09/25 10:45:58;;;;;;;12.20;8.93;;;;;;;;;;5095009;28;20734;-73
2021/09/25 10:48:41;;;;;;;12.00;9.17;;;;;;;;;;5093610;28;20863;-72
2021/09/25 10:51:15;;;;;;;9.47;7.13;;;;;;;;;;5093857;28;20459;-74
2021/09/25 10:54:13;;;;;;;10.60;8.43;;;;;;;;;;5093483;28;20554;-73
2021/09/25 10:56:49;;;;;;;12.77;7.20;;;;;;;;;;5092129;28;20475;-73
2021/09/25 10:59:17;;;;;;;12.43;7.83;;;;;;;;;;5093979;28;20513;-72
2021/09/25 11:01:57;;;;;;;9.03;7.40;;;;;;;;;;5088786;28;20844;-71
2021/09/25 11:07:37;;;;;;;10.27;6.17;;;;;;;;;;5094269;28;20435;-73
2021/09/25 11:10:07;;;;;;;7.57;5.47;;;;;;;;;;5088329;28;21058;-72
2021/09/25 11:12:48;;;;;;;10.77;5.90;;;;;;;;;;5084272;28;20578;-74
2021/09/25 11:15:45;;;;;;;7.37;5.23;;;;;;;;;;5093154;28;20456;-73
2021/09/25 11:18:32;;;;;;;8.17;6.17;;;;;;;;;;5070067;28;20777;-72
2021/09/25 11:21:11;;;;;;;5.63;4.83;;;;;;;;;;5088476;28;20479;-72
2021/09/25 11:23:52;;;;;;;12.80;7.23;;;;;;;;;;5091643;28;20546;-73
2021/09/25 11:26:35;;;;;;;;;;;;;;;;;;;;;
2021/09/25 11:29:08;;;;;;;6.40;4.77;;;;;;;;;;5076273;28;20443;-74
2021/09/25 11:31:49;;;;;;;7.80;4.40;;;;;;;;;;5091887;28;20891;-74
2021/09/25 11:34:33;;;;;;;8.83;4.67;;;;;;;;;;5088177;28;20566;-72
2021/09/25 11:37:25;;;;;;;7.63;6.07;;;;;;;;;;5073467;28;20884;-72
2021/09/25 11:42:52;;;;;;;9.00;6.80;;;;;;;;;;5076935;28;20790;-73
2021/09/25 11:45:33;;;;;;;8.80;6.10;;;;;;;;;;5094524;28;20451;-73
2021/09/25 11:48:07;;;;;;;5.97;5.33;;;;;;;;;;5085836;28;20542;-73
2021/09/25 11:50:40;;;;;;;8.73;6.00;;;;;;;;;;5097361;28;20519;-73
2021/09/25 11:53:09;;;;;;;6.50;5.33;;;;;;;;;;5090863;28;20451;-73
2021/09/25 11:55:51;;;;;;;7.57;5.50;;;;;;;;;;5097324;28;20853;-72
2021/09/25 11:58:21;;;;;;;10.13;5.20;;;;;;;;;;5096195;28;20578;-73
2021/09/25 12:00:50;;;;;;;5.67;5.07;;;;;;;;;;5097147;28;20550;-73
2021/09/25 12:03:22;;;;;;;8.47;6.17;;;;;;;;;;5096856;28;20451;-73
2021/09/25 12:09:30;;;;;;;7.40;5.80;;;;;;;;;;5040508;28;20446;-72
2021/09/25 12:12:11;;;;;;;7.70;5.53;;;;;;;;;;5084946;28;20670;-72
2021/09/25 12:14:51;;;;;;;8.93;5.60;;;;;;;;;;5090404;28;20459;-73
2021/09/25 12:17:21;;;;;;;9.37;5.70;;;;;;;;;;5084209;28;20464;-71
2021/09/25 12:19:53;;;;;;;7.30;5.70;;;;;;;;;;5090015;28;20474;-73
2021/09/25 12:22:23;;;;;;;7.70;5.27;;;;;;;;;;5095126;28;20446;-72
2021/09/25 12:24:57;;;;;;;6.60;5.87;;;;;;;;;;5094797;28;20464;-73
2021/09/25 12:27:30;;;;;;;7.70;5.00;;;;;;;;;;5094160;28;20448;-72
2021/09/25 12:30:11;;;;;;;6.70;4.57;;;;;;;;;;5094601;28;20467;-71
2021/09/25 12:32:42;;;;;;;7.33;5.13;;;;;;;;;;5091506;28;20517;-71
2021/09/25 12:35:20;;;;;;;7.20;5.60;;;;;;;;;;5092994;28;20506;-71
2021/09/25 12:37:53;;;;;;;6.57;4.80;;;;;;;;;;5095645;28;20448;-72
2021/09/25 12:40:25;;;;;;;7.00;4.93;;;;;;;;;;5095562;28;20486;-72
2021/09/25 12:42:59;;;;;;;7.00;4.53;;;;;;;;;;5096504;28;20475;-72
2021/09/25 12:45:27;;;;;;;6.20;5.60;;;;;;;;;;5095186;28;20799;-70
2021/09/25 12:48:25;;;;;;;7.40;4.60;;;;;;;;;;5097270;28;20818;-71
2021/09/25 12:50:53;;;;;;;8.10;4.27;;;;;;;;;;5096275;28;20448;-71
2021/09/25 12:53:23;;;;;;;6.40;4.43;;;;;;;;;;5094230;28;20452;-73
2021/09/25 12:55:58;;;;;;;10.70;4.70;;;;;;;;;;5091802;28;20930;-72
2021/09/25 12:58:33;;;;;;;5.93;4.03;;;;;;;;;;5096800;28;20504;-71
2021/09/25 13:03:48;;;;;;;5.67;4.60;;;;;;;;;;5073269;28;20907;-73
2021/09/25 13:06:22;;;;;;;14.13;5.10;;;;;;;;;;5088396;28;20440;-71
2021/09/25 13:09:03;;;;;;;5.10;4.40;;;;;;;;;;5096475;28;20883;-72
2021/09/25 13:11:36;;;;;;;7.17;4.87;;;;;;;;;;5103829;28;20836;-73
2021/09/25 13:14:17;;;;;;;5.20;4.53;;;;;;;;;;5094630;28;20521;-71
2021/09/25 13:17:12;;;;;;;8.80;4.43;;;;;;;;;;5099127;28;20883;-72
2021/09/25 13:19:41;;;;;;;4.77;3.93;;;;;;;;;;5096324;28;20447;-72
2021/09/25 13:22:32;;;;;;;7.30;4.60;;;;;;;;;;5095660;28;20472;-71
2021/09/25 13:25:03;;;;;;;6.00;4.57;;;;;;;;;;5106955;27;20857;-71
2021/09/25 13:27:36;;;;;;;4.20;3.77;;;;;;;;;;5102516;28;20996;-70
2021/09/25 13:30:07;;;;;;;12.60;7.90;;;;;;;;;;5092554;28;20502;-72
2021/09/25 13:32:35;;;;;;;11.23;4.93;;;;;;;;;;5093780;28;20487;-73
2021/09/25 13:38:11;;;;;;;5.37;4.30;;;;;;;;;;5111075;28;20458;-73
2021/09/25 13:40:49;;;;;;;5.00;4.47;;;;;;;;;;5103244;28;20489;-73
2021/09/25 13:43:32;;;;;;;8.63;4.37;;;;;;;;;;5099768;28;20444;-73
2021/09/25 13:46:03;;;;;;;6.50;3.67;;;;;;;;;;5087479;28;20477;-74
2021/09/25 13:48:42;;;;;;;5.30;3.30;;;;;;;;;;5104807;28;20455;-71
2021/09/25 13:51:11;;;;;;;6.20;4.23;;;;;;;;;;5097717;27;20520;-73
2021/09/25 13:53:43;;;;;;;4.70;3.17;;;;;;;;;;5107780;28;20450;-73
2021/09/25 13:56:11;;;;;;;5.77;3.20;;;;;;;;;;5103324;28;20452;-72
2021/09/25 13:58:45;;;;;;;4.60;3.70;;;;;;;;;;5087720;28;20475;-71
2021/09/25 14:01:17;;;;;;;7.30;3.23;;;;;;;;;;5095860;28;20670;-73
2021/09/25 14:03:45;;;;;;;4.60;3.03;;;;;;;;;;5093633;28;20641;-72
2021/09/25 14:06:14;;;;;;;5.30;3.27;;;;;;;;;;5092853;28;20467;-72
2021/09/25 14:08:44;;;;;;;5.07;3.20;;;;;;;;;;5091849;28;20611;-72
2021/09/25 14:11:15;;;;;;;6.40;3.47;;;;;;;;;;5092303;28;20474;-71
2021/09/25 14:13:43;;;;;;;8.80;4.77;;;;;;;;;;5094458;28;20730;-71
2021/09/25 14:16:13;;;;;;;5.23;3.37;;;;;;;;;;5093084;28;20438;-72
2021/09/25 14:18:43;;;;;;;6.77;4.17;;;;;;;;;;5093988;28;20455;-73
2021/09/25 14:21:15;;;;;;;5.40;3.70;;;;;;;;;;5093055;28;20992;-73
2021/09/25 14:23:43;;;;;;;5.43;3.23;;;;;;;;;;5091994;28;20491;-72
2021/09/25 14:26:11;;;;;;;9.83;3.10;;;;;;;;;;5093311;28;21075;-72
2021/09/25 14:28:49;;;;;;;6.70;3.60;;;;;;;;;;5093804;28;20468;-73
2021/09/25 14:31:25;;;;;;;4.20;3.47;;;;;;;;;;5076555;28;20484;-73
2021/09/25 14:33:55;;;;;;;4.10;3.50;;;;;;;;;;5093381;28;20546;-73
2021/09/25 14:36:47;;;;;;;4.80;3.57;;;;;;;;;;5092864;28;20857;-73
2021/09/25 14:39:15;;;;;;;7.37;5.17;;;;;;;;;;5085670;28;20467;-74
2021/09/25 14:41:46;;;;;;;5.67;2.57;;;;;;;;;;5072808;28;20487;-73
2021/09/25 14:44:14;;;;;;;3.10;2.67;;;;;;;;;;5073347;28;20467;-74
2021/09/25 14:46:43;;;;;;;8.57;3.60;;;;;;;;;;5090341;28;21014;-72
2021/09/25 14:49:12;;;;;;;5.13;2.70;;;;;;;;;;5094898;28;20456;-73
2021/09/25 14:51:46;;;;;;;3.90;2.80;;;;;;;;;;5094174;28;20762;-72
2021/09/25 14:54:15;;;;;;;4.53;3.40;;;;;;;;;;5095669;28;20512;-72
2021/09/25 14:56:43;;;;;;;5.87;3.40;;;;;;;;;;5094011;28;20888;-72
2021/09/25 14:59:12;;;;;;;5.80;3.90;;;;;;;;;;5094253;28;20459;-72
2021/09/25 15:01:41;;;;;;;5.50;3.73;;;;;;;;;;5093439;28;20478;-72
2021/09/25 15:04:13;;;;;;;5.07;3.37;;;;;;;;;;5092203;28;20517;-73
2021/09/25 15:06:44;;;;;;;6.13;3.20;;;;;;;;;;5092301;28;20526;-70
2021/09/25 15:09:13;;;;;;;4.83;3.10;;;;;;;;;;5073092;28;20559;-71